Time;durP1;ratioP1;P1;durP2;ratioP2;P2;SDS_P1;SDS_P2;PMS_P1;PMS_P2;Temp;Humidity;BMP_temperature;BMP_pressure;BME280_temperature;BME280_humidity;BME280_pressure;Samples;Min_cycle;Max_cycle;Signal;HPM_P1;HPM_P2
2021/12/11 00:01:07;;;;;;;67.65;27.98;;;1.40;98.20;;;;;;4957272;28;20019;-65
2021/12/11 00:03:38;;;;;;;76.65;31.85;;;1.40;98.20;;;;;;4947819;28;20458;-66
2021/12/11 00:06:10;;;;;;;73.40;30.63;;;1.40;98.20;;;;;;4943932;28;20028;-66
2021/12/11 00:08:36;;;;;;;68.03;30.23;;;1.40;98.30;;;;;;4942190;28;20404;-66
2021/12/11 00:11:22;;;;;;;75.32;31.83;;;1.40;98.20;;;;;;4939865;28;20046;-66
2021/12/11 00:13:54;;;;;;;75.10;30.50;;;1.40;98.30;;;;;;4920130;29;20091;-66
2021/12/11 00:16:22;;;;;;;68.05;29.55;;;1.40;98.30;;;;;;4940705;28;20479;-66
2021/12/11 00:18:55;;;;;;;76.93;31.25;;;1.40;98.30;;;;;;4942185;29;20598;-66
2021/12/11 00:21:24;;;;;;;73.13;30.23;;;1.40;98.30;;;;;;4941891;28;20030;-65
2021/12/11 00:24:00;;;;;;;77.55;31.70;;;1.40;98.30;;;;;;4937172;28;20107;-65
2021/12/11 00:26:32;;;;;;;70.35;29.02;;;1.40;98.30;;;;;;4954285;28;20102;-65
2021/12/11 00:28:58;;;;;;;68.13;30.02;;;1.40;98.30;;;;;;4941551;28;20030;-66
2021/12/11 00:31:24;;;;;;;72.32;29.35;;;1.40;98.30;;;;;;4946799;28;20023;-65
2021/12/11 00:33:51;;;;;;;72.90;31.50;;;1.40;98.30;;;;;;4944316;28;20169;-65
2021/12/11 00:36:20;;;;;;;69.40;29.58;;;1.40;98.30;;;;;;4922107;29;20031;-66
2021/12/11 00:38:49;;;;;;;71.95;30.60;;;1.30;98.30;;;;;;4936022;28;20034;-65
2021/12/11 00:41:17;;;;;;;75.22;30.23;;;1.30;98.30;;;;;;4944737;28;20270;-65
2021/12/11 00:43:44;;;;;;;71.13;29.45;;;1.30;98.30;;;;;;4923924;28;20034;-66
2021/12/11 00:46:16;;;;;;;76.10;29.70;;;1.30;98.40;;;;;;4936794;28;20398;-65
2021/12/11 00:48:43;;;;;;;65.80;26.42;;;1.30;98.40;;;;;;4943465;28;20437;-66
2021/12/11 00:51:12;;;;;;;66.28;28.27;;;1.30;98.40;;;;;;4951919;28;20023;-64
2021/12/11 00:53:45;;;;;;;68.75;29.30;;;1.30;98.50;;;;;;4940351;28;20409;-65
2021/12/11 00:56:16;;;;;;;72.82;29.92;;;1.30;98.50;;;;;;4943263;28;20023;-65
2021/12/11 00:58:43;;;;;;;82.10;30.63;;;1.30;98.50;;;;;;4933646;28;20479;-66
2021/12/11 01:01:13;;;;;;;71.63;29.40;;;1.30;98.50;;;;;;4923798;28;20066;-65
2021/12/11 01:03:51;;;;;;;75.28;29.85;;;1.30;98.50;;;;;;4944739;29;20164;-65
2021/12/11 01:06:44;;;;;;;71.50;30.10;;;1.30;98.50;;;;;;4940776;29;20075;-66
2021/12/11 01:09:16;;;;;;;67.82;29.58;;;1.30;98.50;;;;;;4937621;28;20070;-65
2021/12/11 01:11:47;;;;;;;73.43;29.75;;;1.30;98.50;;;;;;4941792;28;20435;-65
2021/12/11 01:14:19;;;;;;;69.20;30.80;;;1.40;98.60;;;;;;4939108;28;20115;-66
2021/12/11 01:16:56;;;;;;;72.43;28.17;;;1.30;98.50;;;;;;4944405;28;20015;-65
2021/12/11 01:19:23;;;;;;;71.00;29.80;;;1.40;98.60;;;;;;4929932;28;20215;-65
2021/12/11 01:21:57;;;;;;;83.40;32.45;;;1.40;98.50;;;;;;4941613;28;20091;-65
2021/12/11 01:24:46;;;;;;;73.40;31.52;;;1.40;98.60;;;;;;4945339;28;20024;-66
2021/12/11 01:27:15;;;;;;;73.40;30.52;;;1.40;98.60;;;;;;4941205;28;20081;-65
2021/12/11 01:29:43;;;;;;;70.53;30.55;;;1.40;98.60;;;;;;4948637;28;20125;-66
2021/12/11 01:32:09;;;;;;;74.40;29.85;;;1.40;98.60;;;;;;4952829;28;20367;-65
2021/12/11 01:34:35;;;;;;;69.38;29.58;;;1.30;98.50;;;;;;4953827;28;20037;-65
2021/12/11 01:37:03;;;;;;;79.03;30.42;;;1.30;98.60;;;;;;4948464;28;20103;-65
2021/12/11 01:39:33;;;;;;;77.35;29.95;;;1.40;98.60;;;;;;4946259;28;20033;-66
2021/12/11 01:42:05;;;;;;;72.73;30.77;;;1.40;98.60;;;;;;4941630;28;20034;-65
2021/12/11 01:44:34;;;;;;;76.97;30.42;;;1.30;98.60;;;;;;4928498;29;20334;-65
2021/12/11 01:47:07;;;;;;;77.97;31.63;;;1.30;98.60;;;;;;4948249;28;20027;-64
2021/12/11 01:49:33;;;;;;;68.32;29.73;;;1.30;98.60;;;;;;4948061;28;20111;-65
2021/12/11 01:52:08;;;;;;;72.70;30.02;;;1.30;98.60;;;;;;4942573;28;20057;-65
2021/12/11 01:54:37;;;;;;;77.25;29.50;;;1.40;98.60;;;;;;4946838;28;20019;-66
2021/12/11 01:57:13;;;;;;;67.50;27.95;;;1.30;98.50;;;;;;4950236;28;20039;-67
2021/12/11 01:59:44;;;;;;;66.00;28.98;;;1.30;98.60;;;;;;4942617;28;20114;-66
2021/12/11 02:02:19;;;;;;;;;;;1.30;98.60;;;;;;4943890;28;20048;-66
2021/12/11 02:04:53;;;;;;;67.60;27.35;;;1.30;98.60;;;;;;4947136;28;20005;-66
2021/12/11 02:07:30;;;;;;;62.58;27.42;;;1.30;98.70;;;;;;4943671;29;20043;-66
2021/12/11 02:09:59;;;;;;;66.90;25.60;;;1.30;98.60;;;;;;4931046;28;20518;-67
2021/12/11 02:12:36;;;;;;;62.30;26.90;;;1.30;98.60;;;;;;4952970;28;20050;-67
2021/12/11 02:15:11;;;;;;;63.17;26.73;;;1.20;98.70;;;;;;4941881;28;20059;-67
2021/12/11 02:17:44;;;;;;;69.63;27.55;;;1.30;98.70;;;;;;4938419;28;20021;-67
2021/12/11 02:20:14;;;;;;;72.15;27.83;;;1.20;98.70;;;;;;4938438;28;20557;-67
2021/12/11 02:22:47;;;;;;;67.43;27.88;;;1.20;98.80;;;;;;4956180;28;20022;-66
2021/12/11 02:25:20;;;;;;;60.63;28.48;;;1.20;98.80;;;;;;4928568;29;20074;-67
2021/12/11 02:28:12;;;;;;;81.85;30.33;;;1.20;98.80;;;;;;4942544;28;20055;-64
2021/12/11 02:30:47;;;;;;;74.63;28.83;;;1.20;98.80;;;;;;4947838;28;20364;-64
2021/12/11 02:33:22;;;;;;;79.57;29.45;;;1.20;98.80;;;;;;4937201;28;20023;-65
2021/12/11 02:36:07;;;;;;;75.57;28.55;;;1.20;98.80;;;;;;4943603;28;20050;-65
2021/12/11 02:38:46;;;;;;;81.97;31.05;;;1.20;98.80;;;;;;4947413;28;20134;-65
2021/12/11 02:41:25;;;;;;;72.18;28.40;;;1.20;98.90;;;;;;4941108;28;20035;-65
2021/12/11 02:43:59;;;;;;;71.28;28.85;;;1.30;98.90;;;;;;4946071;28;20110;-65
2021/12/11 02:46:55;;;;;;;75.70;30.02;;;1.30;98.90;;;;;;4957717;28;20393;-65
2021/12/11 02:49:38;;;;;;;71.30;28.33;;;1.30;98.90;;;;;;4922526;28;20031;-65
2021/12/11 02:52:19;;;;;;;77.95;29.80;;;1.20;98.90;;;;;;4939158;29;20028;-65
2021/12/11 02:54:46;;;;;;;;;;;1.30;98.90;;;;;;4945461;28;20027;-65
2021/12/11 02:57:21;;;;;;;76.20;29.02;;;1.20;98.90;;;;;;4945715;28;19919;-66
2021/12/11 02:59:47;;;;;;;81.13;31.17;;;1.20;98.90;;;;;;4942489;28;20523;-66
2021/12/11 03:02:18;;;;;;;71.68;30.33;;;1.30;99.00;;;;;;4953133;28;20023;-65
2021/12/11 03:04:52;;;;;;;85.93;31.67;;;1.20;98.90;;;;;;4945904;28;20031;-65
2021/12/11 03:07:24;;;;;;;71.82;28.58;;;1.30;98.90;;;;;;4946122;28;20031;-66
2021/12/11 03:09:54;;;;;;;74.15;28.00;;;1.20;98.90;;;;;;4945300;28;20027;-66
2021/12/11 03:12:21;;;;;;;75.50;29.73;;;1.30;98.90;;;;;;4926546;29;20031;-65
2021/12/11 03:14:47;;;;;;;79.15;29.52;;;1.20;98.90;;;;;;4938323;28;20039;-65
2021/12/11 03:17:14;;;;;;;81.72;29.83;;;1.20;98.90;;;;;;4942651;28;20109;-65
2021/12/11 03:19:43;;;;;;;71.35;29.98;;;1.20;98.90;;;;;;4945240;28;20359;-66
2021/12/11 03:22:21;;;;;;;74.30;28.65;;;1.20;98.90;;;;;;4924063;29;20106;-66
2021/12/11 03:24:48;;;;;;;68.78;27.38;;;1.20;98.90;;;;;;4922202;28;20040;-66
2021/12/11 03:27:14;;;;;;;79.65;30.38;;;1.20;99.00;;;;;;4943390;28;20058;-66
2021/12/11 03:29:40;;;;;;;68.50;28.42;;;1.20;99.00;;;;;;4939046;28;20027;-66
2021/12/11 03:32:09;;;;;;;73.72;29.00;;;1.20;99.10;;;;;;4946217;28;20078;-66
2021/12/11 03:34:35;;;;;;;68.28;30.80;;;1.30;99.10;;;;;;4950785;28;20116;-66
2021/12/11 03:37:04;;;;;;;78.68;31.05;;;1.30;99.10;;;;;;4941176;28;20912;-66
2021/12/11 03:39:38;;;;;;;78.43;29.83;;;1.20;99.00;;;;;;4937609;29;20556;-66
2021/12/11 03:42:12;;;;;;;76.47;27.73;;;1.30;99.10;;;;;;4947873;28;20039;-66
2021/12/11 03:44:39;;;;;;;77.57;29.17;;;1.20;99.00;;;;;;4940823;28;20035;-66
2021/12/11 03:47:10;;;;;;;69.53;28.85;;;1.20;99.00;;;;;;4945414;28;20034;-67
2021/12/11 03:49:36;;;;;;;69.43;27.17;;;1.10;99.00;;;;;;4941337;28;20545;-66
2021/12/11 03:52:04;;;;;;;81.35;31.00;;;1.10;99.00;;;;;;4946257;28;20047;-66
2021/12/11 03:54:34;;;;;;;75.82;29.10;;;1.00;99.00;;;;;;4945107;28;20439;-66
2021/12/11 03:57:00;;;;;;;86.43;30.80;;;1.00;99.00;;;;;;4951052;28;20124;-66
2021/12/11 03:59:26;;;;;;;77.78;30.70;;;1.00;99.10;;;;;;4944681;28;20356;-66
2021/12/11 04:01:57;;;;;;;82.13;30.60;;;1.00;99.10;;;;;;4938425;28;20561;-65
2021/12/11 04:04:29;;;;;;;61.53;23.13;;;1.00;99.20;;;;;;4945444;28;20131;-65
2021/12/11 04:06:58;;;;;;;84.45;29.73;;;1.00;99.20;;;;;;4938086;29;20031;-66
2021/12/11 04:09:25;;;;;;;83.85;30.20;;;1.00;99.20;;;;;;4924944;28;20047;-66
2021/12/11 04:11:52;;;;;;;87.22;30.00;;;1.00;99.20;;;;;;4942660;28;20026;-66
2021/12/11 04:14:24;;;;;;;86.13;30.65;;;1.00;99.20;;;;;;4945052;28;20026;-66
2021/12/11 04:16:51;;;;;;;81.07;29.90;;;1.00;99.20;;;;;;4925882;28;20051;-66
2021/12/11 04:19:18;;;;;;;80.40;28.92;;;1.00;99.20;;;;;;4943575;28;20030;-66
2021/12/11 04:21:44;;;;;;;91.13;30.73;;;0.90;99.20;;;;;;4954656;28;20019;-66
2021/12/11 04:24:16;;;;;;;82.50;30.48;;;1.00;99.30;;;;;;4939169;28;20051;-66
2021/12/11 04:26:43;;;;;;;85.07;30.20;;;1.00;99.30;;;;;;4924032;29;20024;-68
2021/12/11 04:29:09;;;;;;;85.85;30.92;;;1.00;99.30;;;;;;4938941;28;20043;-67
2021/12/11 04:31:36;;;;;;;82.03;31.40;;;1.00;99.30;;;;;;4925058;29;20027;-66
2021/12/11 04:34:07;;;;;;;82.75;29.33;;;1.10;99.30;;;;;;4944783;28;20329;-67
2021/12/11 04:36:43;;;;;;;81.78;31.40;;;1.00;99.30;;;;;;4943178;28;20231;-67
2021/12/11 04:39:12;;;;;;;76.63;29.70;;;1.10;99.30;;;;;;4942252;28;20032;-67
2021/12/11 04:41:50;;;;;;;82.85;30.38;;;1.10;99.30;;;;;;4927483;29;20109;-67
2021/12/11 04:44:28;;;;;;;74.63;30.02;;;1.00;99.30;;;;;;4946453;28;20079;-66
2021/12/11 04:46:54;;;;;;;78.63;28.08;;;1.00;99.30;;;;;;4928481;29;20024;-66
2021/12/11 04:49:31;;;;;;;73.93;28.35;;;1.00;99.30;;;;;;4939325;28;20100;-67
2021/12/11 04:52:18;;;;;;;72.03;28.83;;;1.00;99.30;;;;;;4941708;28;20102;-66
2021/12/11 04:55:05;;;;;;;70.78;28.30;;;1.00;99.20;;;;;;4943672;28;20042;-66
2021/12/11 05:00:08;;;;;;;83.32;30.08;;;1.00;99.30;;;;;;4943825;28;20055;-66
2021/12/11 05:03:10;;;;;;;81.68;28.48;;;1.00;99.40;;;;;;4927081;28;20024;-66
2021/12/11 05:05:54;;;;;;;87.80;29.13;;;1.10;99.40;;;;;;4941611;28;20071;-66
2021/12/11 05:11:01;;;;;;;78.13;29.60;;;1.10;99.40;;;;;;4944774;28;20121;-66
2021/12/11 05:13:28;;;;;;;71.82;28.58;;;1.10;99.40;;;;;;4940086;29;20023;-66
2021/12/11 05:15:56;;;;;;;77.00;28.35;;;1.10;99.40;;;;;;4934653;28;20095;-66
2021/12/11 05:18:25;;;;;;;82.40;29.05;;;1.10;99.40;;;;;;4944739;29;20602;-66
2021/12/11 05:20:55;;;;;;;82.80;27.88;;;1.00;99.30;;;;;;4943620;28;20098;-66
2021/12/11 05:23:21;;;;;;;79.03;28.02;;;1.00;99.30;;;;;;4944917;29;20551;-67
2021/12/11 05:25:47;;;;;;;61.55;26.83;;;1.00;99.30;;;;;;4948008;28;20067;-66
2021/12/11 05:28:14;;;;;;;76.78;28.35;;;1.00;99.40;;;;;;4943408;28;20027;-67
2021/12/11 05:30:43;;;;;;;76.40;28.05;;;1.00;99.40;;;;;;4955825;28;20033;-66
2021/12/11 05:33:09;;;;;;;73.22;27.17;;;1.00;99.40;;;;;;4925983;29;20035;-66
2021/12/11 05:35:37;;;;;;;72.30;27.52;;;1.00;99.40;;;;;;4940299;29;20054;-66
2021/12/11 05:38:06;;;;;;;78.78;28.90;;;1.00;99.40;;;;;;4942105;28;20038;-66
2021/12/11 05:40:34;;;;;;;75.10;27.90;;;1.00;99.40;;;;;;4943538;28;20046;-66
2021/12/11 05:43:00;;;;;;;80.20;26.50;;;0.90;99.30;;;;;;4940090;28;20110;-66
2021/12/11 05:45:26;;;;;;;72.43;28.60;;;0.90;99.30;;;;;;4941335;28;20027;-66
2021/12/11 05:47:52;;;;;;;62.72;26.92;;;0.80;99.40;;;;;;4945173;28;20154;-66
2021/12/11 05:50:23;;;;;;;72.13;27.23;;;0.70;99.40;;;;;;4948295;28;20063;-66
2021/12/11 05:52:50;;;;;;;74.15;27.02;;;0.60;99.40;;;;;;4943528;28;20491;-66
2021/12/11 05:55:19;;;;;;;70.95;26.17;;;0.60;99.40;;;;;;4943928;28;20028;-66
2021/12/11 05:57:54;;;;;;;71.30;25.92;;;0.50;99.40;;;;;;4942815;28;20016;-67
2021/12/11 06:00:28;;;;;;;70.53;24.90;;;0.40;99.40;;;;;;4942283;28;20437;-66
2021/12/11 06:02:55;;;;;;;70.45;26.02;;;0.40;99.50;;;;;;4940087;28;20054;-66
2021/12/11 06:05:20;;;;;;;77.70;26.55;;;0.40;99.50;;;;;;4939580;29;20046;-65
2021/12/11 06:07:46;;;;;;;79.43;27.83;;;0.50;99.60;;;;;;4937120;28;20031;-66
2021/12/11 06:10:16;;;;;;;82.18;28.23;;;0.50;99.60;;;;;;4927103;29;20038;-65
2021/12/11 06:12:44;;;;;;;82.90;28.30;;;0.50;99.60;;;;;;4938965;28;20395;-65
2021/12/11 06:15:10;;;;;;;79.72;26.73;;;0.50;99.60;;;;;;4942858;28;20039;-64
2021/12/11 06:17:38;;;;;;;77.78;27.75;;;0.50;99.60;;;;;;4952264;28;20019;-66
2021/12/11 06:20:07;;;;;;;79.78;28.33;;;0.40;99.60;;;;;;4943559;28;20043;-66
2021/12/11 06:22:34;;;;;;;89.07;29.42;;;0.40;99.60;;;;;;4952586;28;20601;-66
2021/12/11 06:25:09;;;;;;;96.50;28.55;;;0.40;99.60;;;;;;4946407;29;20050;-67
2021/12/11 06:27:35;;;;;;;86.90;26.50;;;0.40;99.60;;;;;;4943946;28;20103;-67
2021/12/11 06:30:02;;;;;;;93.38;28.77;;;0.40;99.70;;;;;;4947105;28;20473;-66
2021/12/11 06:32:28;;;;;;;96.88;28.17;;;0.30;99.70;;;;;;4947344;28;20118;-66
2021/12/11 06:34:57;;;;;;;91.55;28.75;;;0.40;99.70;;;;;;4940941;29;20084;-66
2021/12/11 06:37:22;;;;;;;104.07;30.00;;;0.30;99.70;;;;;;4944074;28;20034;-66
2021/12/11 06:39:51;;;;;;;96.10;28.60;;;0.30;99.70;;;;;;4940845;28;20024;-66
2021/12/11 06:42:18;;;;;;;92.57;28.80;;;0.30;99.70;;;;;;4945876;28;20023;-67
2021/12/11 06:44:44;;;;;;;106.82;27.40;;;0.20;99.70;;;;;;4945897;29;20111;-67
2021/12/11 06:47:10;;;;;;;106.72;28.50;;;0.20;99.80;;;;;;4946671;28;20482;-66
2021/12/11 06:49:38;;;;;;;108.47;28.30;;;0.20;99.70;;;;;;4943813;28;20074;-65
2021/12/11 06:52:08;;;;;;;105.80;29.38;;;0.20;99.80;;;;;;4938175;28;20061;-65
2021/12/11 06:54:34;;;;;;;103.20;29.90;;;0.20;99.80;;;;;;4926508;29;20047;-65
2021/12/11 06:56:59;;;;;;;92.32;29.05;;;0.20;99.80;;;;;;4941354;28;20350;-66
2021/12/11 06:59:26;;;;;;;101.28;28.88;;;0.20;99.80;;;;;;4939218;28;20102;-66
2021/12/11 07:01:52;;;;;;;88.60;28.48;;;0.20;99.70;;;;;;4939298;28;20043;-65
2021/12/11 07:04:17;;;;;;;98.07;27.77;;;0.20;99.70;;;;;;4943905;28;20371;-64
2021/12/11 07:06:46;;;;;;;83.15;27.52;;;0.10;99.70;;;;;;4947798;28;20114;-66
2021/12/11 07:09:14;;;;;;;97.80;27.80;;;0.10;99.80;;;;;;4943134;28;20094;-64
2021/12/11 07:11:42;;;;;;;96.47;28.65;;;0.10;99.90;;;;;;4939344;28;20027;-66
2021/12/11 07:14:09;;;;;;;87.90;29.30;;;0.10;99.90;;;;;;4927856;29;20039;-66
2021/12/11 07:16:36;;;;;;;102.40;29.35;;;0.10;99.90;;;;;;4938125;28;20084;-65
2021/12/11 07:19:04;;;;;;;116.53;30.40;;;0.10;99.90;;;;;;4929218;28;20035;-66
2021/12/11 07:21:30;;;;;;;98.60;29.33;;;0.20;99.90;;;;;;4940225;28;20050;-66
2021/12/11 07:23:57;;;;;;;95.43;27.75;;;0.20;99.90;;;;;;4951116;28;20491;-66
2021/12/11 07:26:31;;;;;;;99.50;29.40;;;0.30;99.90;;;;;;4944306;28;20045;-66
2021/12/11 07:29:01;;;;;;;95.55;28.35;;;0.30;99.90;;;;;;4942590;28;20042;-65
2021/12/11 07:31:27;;;;;;;109.05;28.98;;;0.30;99.90;;;;;;4944639;28;20027;-66
2021/12/11 07:33:53;;;;;;;102.43;29.55;;;0.30;99.90;;;;;;4942135;28;20050;-66
2021/12/11 07:36:19;;;;;;;90.45;29.17;;;0.40;99.90;;;;;;4943411;28;20047;-66
2021/12/11 07:38:45;;;;;;;89.45;29.50;;;0.40;99.90;;;;;;4944968;28;20496;-66
2021/12/11 07:41:13;;;;;;;87.40;27.67;;;0.40;99.90;;;;;;4936773;28;20079;-66
2021/12/11 07:43:40;;;;;;;84.30;26.27;;;0.50;99.90;;;;;;4938476;28;20349;-65
2021/12/11 07:46:09;;;;;;;87.82;26.17;;;0.40;99.80;;;;;;4938830;28;20031;-66
2021/12/11 07:48:35;;;;;;;86.43;26.60;;;0.40;99.80;;;;;;4942643;28;20035;-66
2021/12/11 07:51:00;;;;;;;85.32;28.40;;;0.50;99.80;;;;;;4944361;28;20142;-66
2021/12/11 07:53:26;;;;;;;81.93;26.92;;;0.40;99.80;;;;;;4938126;28;20035;-66
2021/12/11 07:55:53;;;;;;;84.35;27.48;;;0.50;99.80;;;;;;4935978;28;20123;-66
2021/12/11 07:58:20;;;;;;;83.60;26.38;;;0.50;99.80;;;;;;4941407;28;20050;-66
2021/12/11 08:00:48;;;;;;;86.18;28.13;;;0.50;99.80;;;;;;4941856;28;20335;-66
2021/12/11 08:03:16;;;;;;;79.93;26.45;;;0.60;99.80;;;;;;4941377;28;20103;-66
2021/12/11 08:05:44;;;;;;;81.40;27.15;;;0.60;99.70;;;;;;4933870;28;20050;-66
2021/12/11 08:08:11;;;;;;;82.90;27.55;;;0.70;99.70;;;;;;4943601;28;20038;-67
2021/12/11 08:10:39;;;;;;;86.78;28.27;;;0.60;99.70;;;;;;4943131;28;20075;-66
2021/12/11 08:13:07;;;;;;;81.50;27.10;;;0.70;99.70;;;;;;4942620;28;20114;-66
2021/12/11 08:15:33;;;;;;;78.10;26.77;;;0.60;99.60;;;;;;4942843;28;20054;-66
2021/12/11 08:17:59;;;;;;;74.65;26.08;;;0.60;99.60;;;;;;4921224;29;20051;-66
2021/12/11 08:20:28;;;;;;;68.55;26.40;;;0.60;99.60;;;;;;4939782;28;20114;-66
2021/12/11 08:22:54;;;;;;;83.20;25.50;;;0.70;99.50;;;;;;4944260;28;20382;-66
2021/12/11 08:25:22;;;;;;;69.45;25.55;;;0.70;99.50;;;;;;4925772;29;20114;-67
2021/12/11 08:27:48;;;;;;;73.88;26.42;;;0.80;99.50;;;;;;4936530;28;20346;-66
2021/12/11 08:30:15;;;;;;;78.68;26.60;;;0.80;99.40;;;;;;4934261;28;20027;-66
2021/12/11 08:32:41;;;;;;;72.45;27.33;;;0.90;99.40;;;;;;4943103;28;20043;-65
2021/12/11 08:35:09;;;;;;;68.13;24.80;;;1.00;99.40;;;;;;4944820;28;20039;-66
2021/12/11 08:37:36;;;;;;;66.68;27.08;;;1.00;99.40;;;;;;4932060;28;20024;-65
2021/12/11 08:40:08;;;;;;;65.72;24.15;;;1.10;99.40;;;;;;4938044;28;20030;-65
2021/12/11 08:42:33;;;;;;;59.22;25.67;;;1.10;99.20;;;;;;4938725;28;20064;-65
2021/12/11 08:45:06;;;;;;;57.72;25.77;;;1.20;99.10;;;;;;4941953;28;20031;-64
2021/12/11 08:47:36;;;;;;;54.05;24.00;;;1.30;99.00;;;;;;4937599;28;20401;-65
2021/12/11 08:50:03;;;;;;;54.70;23.40;;;1.30;99.00;;;;;;4935126;28;20131;-66
2021/12/11 08:52:35;;;;;;;56.22;23.58;;;1.30;98.80;;;;;;4942437;28;20687;-65
2021/12/11 08:55:03;;;;;;;48.05;23.95;;;1.30;98.80;;;;;;4931062;29;20518;-65
2021/12/11 08:57:31;;;;;;;47.88;21.83;;;1.40;98.70;;;;;;4941719;28;20370;-66
2021/12/11 09:00:03;;;;;;;47.28;23.10;;;1.40;98.60;;;;;;4941631;28;20363;-65
2021/12/11 09:02:40;;;;;;;51.97;23.08;;;1.40;98.60;;;;;;4947176;28;20102;-65
2021/12/11 09:05:10;;;;;;;45.15;21.15;;;1.40;98.50;;;;;;4933828;28;20627;-65
2021/12/11 09:07:47;;;;;;;43.45;23.48;;;1.40;98.40;;;;;;4938195;28;20039;-66
2021/12/11 09:10:19;;;;;;;42.40;21.73;;;1.50;98.40;;;;;;4928489;28;20035;-66
2021/12/11 09:12:56;;;;;;;39.92;20.95;;;1.50;98.40;;;;;;4940796;29;20134;-66
2021/12/11 09:15:27;;;;;;;44.83;21.83;;;1.60;98.30;;;;;;4937585;28;20043;-66
2021/12/11 09:18:08;;;;;;;46.38;21.95;;;1.70;98.00;;;;;;4939855;28;20434;-67
2021/12/11 09:20:46;;;;;;;;;;;1.80;98.10;;;;;;4930541;28;20042;-67
2021/12/11 09:23:17;;;;;;;39.30;19.38;;;1.80;97.90;;;;;;4941491;29;19914;-66
2021/12/11 09:25:55;;;;;;;40.83;21.33;;;1.80;97.60;;;;;;4928810;28;20035;-67
2021/12/11 09:28:46;;;;;;;43.60;22.05;;;1.90;97.70;;;;;;4935229;28;20136;-66
2021/12/11 09:31:16;;;;;;;38.33;20.77;;;1.90;97.30;;;;;;4919313;29;20055;-66
2021/12/11 09:34:03;;;;;;;34.83;19.20;;;2.00;97.30;;;;;;4937244;28;20080;-66
2021/12/11 09:36:35;;;;;;;40.28;20.13;;;2.00;97.20;;;;;;4912467;28;20038;-67
2021/12/11 09:39:08;;;;;;;41.28;19.42;;;2.00;97.20;;;;;;4923949;29;20137;-66
2021/12/11 09:41:35;;;;;;;35.85;19.60;;;2.00;97.10;;;;;;4935918;28;20042;-66
2021/12/11 09:44:20;;;;;;;38.53;19.48;;;2.00;97.00;;;;;;4950637;28;20116;-66
2021/12/11 09:46:57;;;;;;;35.42;19.52;;;2.10;97.10;;;;;;4944127;28;20034;-65
2021/12/11 09:49:29;;;;;;;42.38;20.58;;;2.00;97.00;;;;;;4947691;29;20019;-67
2021/12/11 09:52:03;;;;;;;41.38;18.70;;;2.00;96.90;;;;;;4949244;28;20109;-67
2021/12/11 09:54:34;;;;;;;36.08;19.88;;;2.10;97.00;;;;;;4942300;28;20075;-66
2021/12/11 09:57:06;;;;;;;37.65;19.77;;;2.10;96.90;;;;;;4946110;28;20038;-65
2021/12/11 09:59:36;;;;;;;34.45;19.38;;;2.10;96.90;;;;;;4942161;28;20031;-66
2021/12/11 10:02:06;;;;;;;36.45;19.45;;;2.00;96.90;;;;;;4946237;29;20075;-66
2021/12/11 10:04:46;;;;;;;38.90;18.98;;;2.00;96.90;;;;;;4947462;28;20054;-66
2021/12/11 10:07:27;;;;;;;37.38;19.20;;;1.90;96.90;;;;;;4934701;28;20126;-66
2021/12/11 10:10:10;;;;;;;35.75;20.27;;;1.90;96.90;;;;;;4941477;28;20274;-66
2021/12/11 10:12:43;;;;;;;37.47;21.17;;;1.90;97.00;;;;;;4927507;29;20058;-66
2021/12/11 10:15:11;;;;;;;36.03;20.27;;;2.20;97.10;;;;;;4947731;28;20078;-66
2021/12/11 10:17:57;;;;;;;39.42;20.38;;;2.40;96.50;;;;;;4946839;28;20039;-66
2021/12/11 10:20:36;;;;;;;34.40;19.98;;;2.70;96.10;;;;;;4939490;28;20035;-67
2021/12/11 10:23:06;;;;;;;38.85;20.00;;;3.10;95.20;;;;;;4940666;28;20027;-67
2021/12/11 10:25:34;;;;;;;36.05;20.50;;;3.10;94.50;;;;;;4946361;28;20087;-67
2021/12/11 10:28:03;;;;;;;33.78;18.17;;;3.10;94.10;;;;;;4945085;28;20020;-67
2021/12/11 10:30:31;;;;;;;27.58;16.38;;;3.00;94.10;;;;;;4946974;28;20018;-65
2021/12/11 10:32:56;;;;;;;32.78;16.40;;;3.00;93.90;;;;;;4952916;28;20083;-67
2021/12/11 10:35:28;;;;;;;28.73;17.38;;;3.00;94.00;;;;;;4953946;28;20097;-67
2021/12/11 10:37:54;;;;;;;29.00;15.98;;;3.00;94.10;;;;;;4945254;28;20421;-67
2021/12/11 10:40:28;;;;;;;30.55;17.30;;;3.00;94.20;;;;;;4945508;29;20103;-66
2021/12/11 10:43:00;;;;;;;27.48;15.73;;;2.90;94.00;;;;;;4946460;28;20023;-66
2021/12/11 10:45:27;;;;;;;26.33;15.88;;;3.00;94.20;;;;;;4928724;28;20475;-66
2021/12/11 10:47:59;;;;;;;25.33;15.80;;;3.00;94.20;;;;;;4949816;28;20122;-66
2021/12/11 10:50:34;;;;;;;28.63;16.33;;;3.00;94.50;;;;;;4943756;28;20346;-67
2021/12/11 10:53:01;;;;;;;29.33;15.73;;;3.00;94.50;;;;;;4947695;28;20520;-66
2021/12/11 10:55:31;;;;;;;27.73;15.40;;;3.00;94.40;;;;;;4953057;28;20102;-66
2021/12/11 10:58:00;;;;;;;26.17;16.38;;;3.00;94.40;;;;;;4943655;28;20308;-66
2021/12/11 11:00:35;;;;;;;26.67;16.55;;;3.00;94.30;;;;;;4932872;28;20024;-65
2021/12/11 11:03:02;;;;;;;26.83;16.75;;;3.00;94.10;;;;;;4940575;28;20656;-66
2021/12/11 11:05:29;;;;;;;23.77;14.60;;;3.00;94.40;;;;;;4916633;28;20360;-66
2021/12/11 11:07:55;;;;;;;27.48;15.43;;;3.00;94.30;;;;;;4942766;28;20153;-66
2021/12/11 11:10:26;;;;;;;29.80;17.23;;;3.00;94.20;;;;;;4938318;29;20031;-67
2021/12/11 11:12:53;;;;;;;26.70;15.50;;;3.00;94.20;;;;;;4938485;28;20137;-66
2021/12/11 11:15:22;;;;;;;29.38;16.27;;;3.00;94.10;;;;;;4935069;28;20035;-66
2021/12/11 11:17:50;;;;;;;31.38;15.10;;;3.00;93.90;;;;;;4942619;28;20050;-66
2021/12/11 11:20:19;;;;;;;27.58;15.98;;;3.00;94.00;;;;;;4941126;28;20060;-67
2021/12/11 11:22:45;;;;;;;26.00;15.90;;;3.00;93.80;;;;;;4917210;29;20484;-66
2021/12/11 11:25:22;;;;;;;27.02;15.45;;;3.10;93.90;;;;;;4935424;28;20035;-66
2021/12/11 11:27:52;;;;;;;26.20;15.27;;;3.10;93.60;;;;;;4944742;28;20019;-67
2021/12/11 11:30:21;;;;;;;24.70;13.63;;;3.20;93.60;;;;;;4937684;28;20028;-67
2021/12/11 11:32:48;;;;;;;26.77;15.20;;;3.20;93.40;;;;;;4929678;28;20032;-66
2021/12/11 11:35:17;;;;;;;24.67;14.55;;;3.20;93.10;;;;;;4937778;28;20118;-67
2021/12/11 11:37:43;;;;;;;24.35;14.57;;;3.30;93.20;;;;;;4936212;29;20542;-67
2021/12/11 11:40:16;;;;;;;23.80;14.32;;;3.40;93.00;;;;;;4936619;28;20046;-67
2021/12/11 11:42:42;;;;;;;26.20;14.93;;;3.30;92.70;;;;;;4933698;28;20023;-66
2021/12/11 11:45:11;;;;;;;27.70;16.50;;;3.40;92.70;;;;;;4928629;28;20087;-66
2021/12/11 11:47:37;;;;;;;22.40;14.40;;;3.40;92.80;;;;;;4933132;28;20027;-67
2021/12/11 11:50:06;;;;;;;24.52;14.68;;;3.40;92.60;;;;;;4941213;29;20063;-67
2021/12/11 11:52:31;;;;;;;23.17;13.73;;;3.50;92.60;;;;;;4945148;28;20090;-66
2021/12/11 11:55:01;;;;;;;24.67;14.75;;;3.50;92.40;;;;;;4942555;28;20035;-67
2021/12/11 11:57:33;;;;;;;24.02;14.20;;;3.60;92.20;;;;;;4940691;28;20142;-68
2021/12/11 12:00:01;;;;;;;22.55;13.75;;;3.70;92.20;;;;;;4934624;28;20027;-68
2021/12/11 12:02:30;;;;;;;24.25;14.27;;;3.80;92.00;;;;;;4942476;28;20204;-68
2021/12/11 12:04:58;;;;;;;24.50;14.50;;;3.80;91.50;;;;;;4936778;28;20095;-68
2021/12/11 12:07:29;;;;;;;23.95;14.48;;;3.80;91.50;;;;;;4943934;28;20062;-68
2021/12/11 12:10:02;;;;;;;27.13;13.48;;;3.90;91.40;;;;;;4945647;28;20115;-68
2021/12/11 12:12:28;;;;;;;23.23;13.18;;;3.90;91.00;;;;;;4918272;29;20180;-68
2021/12/11 12:14:55;;;;;;;23.15;12.75;;;3.90;90.90;;;;;;4938039;28;20481;-68
2021/12/11 12:17:24;;;;;;;23.02;12.65;;;4.00;90.70;;;;;;4925615;29;20027;-67
2021/12/11 12:19:51;;;;;;;20.73;11.95;;;4.00;90.40;;;;;;4933584;29;20119;-68
2021/12/11 12:22:19;;;;;;;17.73;11.07;;;3.90;89.60;;;;;;4938983;28;20019;-68
2021/12/11 12:24:49;;;;;;;18.80;11.27;;;3.90;89.40;;;;;;4927060;28;20086;-68
2021/12/11 12:27:19;;;;;;;20.95;12.35;;;3.80;89.50;;;;;;4938908;28;20442;-67
2021/12/11 12:29:46;;;;;;;22.27;12.32;;;3.80;89.90;;;;;;4936671;28;20035;-68
2021/12/11 12:32:18;;;;;;;18.05;10.82;;;3.70;90.10;;;;;;4936200;28;20042;-67
2021/12/11 12:34:44;;;;;;;19.23;10.13;;;3.70;90.00;;;;;;4924443;28;20039;-68
2021/12/11 12:37:10;;;;;;;19.85;10.63;;;3.60;90.00;;;;;;4941365;28;20038;-68
2021/12/11 12:39:43;;;;;;;15.57;10.23;;;3.60;89.40;;;;;;4934847;29;20028;-68
2021/12/11 12:42:24;;;;;;;16.08;9.27;;;3.60;89.90;;;;;;4940284;28;20114;-68
2021/12/11 12:44:55;;;;;;;22.83;10.60;;;3.70;88.80;;;;;;4920976;29;20047;-67
2021/12/11 12:47:26;;;;;;;19.90;11.80;;;3.70;89.10;;;;;;4938311;28;20457;-68
2021/12/11 12:49:54;;;;;;;23.30;12.13;;;3.80;89.50;;;;;;4951062;28;20038;-69
2021/12/11 12:52:31;;;;;;;26.13;13.10;;;3.80;89.00;;;;;;4934453;28;20058;-68
2021/12/11 12:55:00;;;;;;;21.77;12.30;;;3.80;89.10;;;;;;4941865;29;20031;-68
2021/12/11 12:57:33;;;;;;;18.80;10.60;;;3.80;88.60;;;;;;4919390;28;20035;-68
2021/12/11 13:00:02;;;;;;;20.83;10.48;;;3.80;88.90;;;;;;4931626;28;20053;-68